Lake Country Regional Airport
KW63 : now visible

Airfield :











YOU CAN JOIN US ON...

 
LOGIN :

Register | Disclaimer

   EN    FR    IT 

 









Legend :    VFR   Marginal VFR   IFR   Intensive IFR   Very Intensive IFR
Visi :
Ceiling :
>= 8 km
>= 3000ft
5 to 8 km
1000 to 3000 ft
1500m to 5 km
500 to 1000 ft
800 to 1500m
200 to 500 ft
< 800m
< 200 ft
Symbols :   Thunderstorms  Fog  Heavy snow  Heavy precipitations  Wind > 20 kt






- Airport Elevation : 421 ft


KW63 - Lake Country Regional

CURRENT METAR :
  • 222215Z AUTO 02003KT 10SM CLR 21/19 A2990 RMK AO1

EXPIRED METARs :
  • 222115Z AUTO 36007KT 10SM SCT014 BKN025 OVC037 20/20 A2988 RMK AO1
  • 222055Z AUTO 35006KT 10SM SCT012 BKN017 OVC044 21/21 A2986 RMK AO1
  • 222035Z AUTO 33004KT 10SM BKN017 OVC040 21/21 A2986 RMK AO1
  • 221955Z AUTO 32008KT 5SM SCT009 SCT015 OVC023 20/20 A2985 RMK AO1
  • 221935Z AUTO 00000KT 10SM BKN011 BKN019 OVC025 20/20 A2984 RMK AO1
  • 221915Z AUTO 00000KT 10SM OVC011 20/20 A2985 RMK AO1

TAF N/A



MET'MAP, your aeronautical weather chart ! - Copyright ORBIFLY December 2007 - Disclaimer

ORBIFLY MET'MAP TEAM :

Programming & Development : Alexandra Zaïnal
Concept & original design : Baudouin d'Aumeries
Assistance for programming : Marc-Olivier Méhu
Technical & hardware support : Manuel Goepfert

Contact : metmap@orbifly.com




SOURCES & CREDITS :

   NOAA       Earth
Advisory